sensor_id;sensor_type;location;lat;lon;timestamp;P1;durP1;ratioP1;P2;durP2;ratioP2
77214;SDS011;66210;53.282;9.864;2024-02-14T00:00:44;2.95;;;1.75;;
77214;SDS011;66210;53.282;9.864;2024-02-14T00:03:11;4.00;;;1.90;;
77214;SDS011;66210;53.282;9.864;2024-02-14T00:05:37;2.20;;;1.90;;
77214;SDS011;66210;53.282;9.864;2024-02-14T00:10:34;3.30;;;1.73;;
77214;SDS011;66210;53.282;9.864;2024-02-14T00:13:01;2.65;;;1.77;;
77214;SDS011;66210;53.282;9.864;2024-02-14T00:15:28;3.53;;;1.70;;
77214;SDS011;66210;53.282;9.864;2024-02-14T00:17:55;1.85;;;1.50;;
77214;SDS011;66210;53.282;9.864;2024-02-14T00:20:22;4.03;;;1.80;;
77214;SDS011;66210;53.282;9.864;2024-02-14T00:22:51;3.58;;;1.90;;
77214;SDS011;66210;53.282;9.864;2024-02-14T00:25:17;4.15;;;1.73;;
77214;SDS011;66210;53.282;9.864;2024-02-14T00:27:46;2.17;;;1.60;;
77214;SDS011;66210;53.282;9.864;2024-02-14T00:30:13;1.95;;;1.58;;
77214;SDS011;66210;53.282;9.864;2024-02-14T00:32:40;3.65;;;1.50;;
77214;SDS011;66210;53.282;9.864;2024-02-14T00:35:07;2.97;;;1.50;;
77214;SDS011;66210;53.282;9.864;2024-02-14T00:37:34;2.50;;;1.52;;
77214;SDS011;66210;53.282;9.864;2024-02-14T00:40:01;2.50;;;1.80;;
77214;SDS011;66210;53.282;9.864;2024-02-14T00:42:28;5.13;;;1.90;;
77214;SDS011;66210;53.282;9.864;2024-02-14T00:44:55;4.70;;;2.00;;
77214;SDS011;66210;53.282;9.864;2024-02-14T00:47:22;1.60;;;1.50;;
77214;SDS011;66210;53.282;9.864;2024-02-14T00:49:49;3.78;;;2.10;;
77214;SDS011;66210;53.282;9.864;2024-02-14T00:52:16;4.00;;;1.85;;
77214;SDS011;66210;53.282;9.864;2024-02-14T00:54:43;2.78;;;1.65;;
77214;SDS011;66210;53.282;9.864;2024-02-14T00:57:10;3.65;;;1.80;;
77214;SDS011;66210;53.282;9.864;2024-02-14T00:59:36;2.67;;;1.73;;
77214;SDS011;66210;53.282;9.864;2024-02-14T01:02:03;3.15;;;1.70;;
77214;SDS011;66210;53.282;9.864;2024-02-14T01:04:30;3.78;;;1.80;;
77214;SDS011;66210;53.282;9.864;2024-02-14T01:06:57;2.22;;;1.48;;
77214;SDS011;66210;53.282;9.864;2024-02-14T01:09:24;2.35;;;1.77;;
77214;SDS011;66210;53.282;9.864;2024-02-14T01:11:51;2.67;;;1.70;;
77214;SDS011;66210;53.282;9.864;2024-02-14T01:14:18;1.50;;;1.40;;
77214;SDS011;66210;53.282;9.864;2024-02-14T01:16:44;2.15;;;1.65;;
77214;SDS011;66210;53.282;9.864;2024-02-14T01:19:11;2.65;;;1.80;;
77214;SDS011;66210;53.282;9.864;2024-02-14T01:21:39;3.03;;;1.70;;
77214;SDS011;66210;53.282;9.864;2024-02-14T01:24:06;4.10;;;1.92;;
77214;SDS011;66210;53.282;9.864;2024-02-14T01:26:35;4.22;;;1.75;;
77214;SDS011;66210;53.282;9.864;2024-02-14T01:29:02;2.95;;;1.92;;
77214;SDS011;66210;53.282;9.864;2024-02-14T01:31:29;4.63;;;1.85;;
77214;SDS011;66210;53.282;9.864;2024-02-14T01:33:56;3.78;;;1.75;;
77214;SDS011;66210;53.282;9.864;2024-02-14T01:36:24;3.78;;;1.60;;
77214;SDS011;66210;53.282;9.864;2024-02-14T01:38:51;2.60;;;1.70;;
77214;SDS011;66210;53.282;9.864;2024-02-14T01:41:17;3.70;;;2.00;;
77214;SDS011;66210;53.282;9.864;2024-02-14T01:43:45;4.57;;;2.15;;
77214;SDS011;66210;53.282;9.864;2024-02-14T01:46:12;4.38;;;2.05;;
77214;SDS011;66210;53.282;9.864;2024-02-14T01:48:39;6.95;;;2.40;;
77214;SDS011;66210;53.282;9.864;2024-02-14T01:51:08;3.03;;;2.10;;
77214;SDS011;66210;53.282;9.864;2024-02-14T01:53:37;4.30;;;2.03;;
77214;SDS011;66210;53.282;9.864;2024-02-14T01:58:34;2.70;;;1.73;;
77214;SDS011;66210;53.282;9.864;2024-02-14T02:01:01;4.47;;;1.92;;
77214;SDS011;66210;53.282;9.864;2024-02-14T02:03:29;3.17;;;1.90;;
77214;SDS011;66210;53.282;9.864;2024-02-14T02:05:56;2.53;;;2.00;;
77214;SDS011;66210;53.282;9.864;2024-02-14T02:08:24;3.63;;;2.13;;
77214;SDS011;66210;53.282;9.864;2024-02-14T02:10:51;2.80;;;2.35;;
77214;SDS011;66210;53.282;9.864;2024-02-14T02:13:18;5.75;;;2.10;;
77214;SDS011;66210;53.282;9.864;2024-02-14T02:15:46;4.50;;;2.25;;
77214;SDS011;66210;53.282;9.864;2024-02-14T02:18:13;6.72;;;2.28;;
77214;SDS011;66210;53.282;9.864;2024-02-14T02:20:41;3.78;;;2.10;;
77214;SDS011;66210;53.282;9.864;2024-02-14T02:23:10;3.55;;;2.10;;
77214;SDS011;66210;53.282;9.864;2024-02-14T02:25:41;4.53;;;2.08;;
77214;SDS011;66210;53.282;9.864;2024-02-14T02:28:09;4.45;;;2.15;;
77214;SDS011;66210;53.282;9.864;2024-02-14T02:30:36;4.40;;;2.40;;
77214;SDS011;66210;53.282;9.864;2024-02-14T02:33:03;5.03;;;2.38;;
77214;SDS011;66210;53.282;9.864;2024-02-14T02:35:31;7.13;;;2.28;;
77214;SDS011;66210;53.282;9.864;2024-02-14T02:37:58;3.47;;;1.90;;
77214;SDS011;66210;53.282;9.864;2024-02-14T02:40:25;4.45;;;2.05;;
77214;SDS011;66210;53.282;9.864;2024-02-14T02:42:54;2.92;;;1.92;;
77214;SDS011;66210;53.282;9.864;2024-02-14T02:45:21;3.72;;;2.20;;
77214;SDS011;66210;53.282;9.864;2024-02-14T02:47:48;4.75;;;2.97;;
77214;SDS011;66210;53.282;9.864;2024-02-14T02:50:18;4.70;;;2.25;;
77214;SDS011;66210;53.282;9.864;2024-02-14T02:52:46;4.50;;;2.20;;
77214;SDS011;66210;53.282;9.864;2024-02-14T02:55:12;8.48;;;2.45;;
77214;SDS011;66210;53.282;9.864;2024-02-14T02:57:40;3.38;;;2.00;;
77214;SDS011;66210;53.282;9.864;2024-02-14T03:00:07;6.05;;;2.67;;
77214;SDS011;66210;53.282;9.864;2024-02-14T03:02:35;4.13;;;2.50;;
77214;SDS011;66210;53.282;9.864;2024-02-14T03:05:05;3.40;;;2.22;;
77214;SDS011;66210;53.282;9.864;2024-02-14T03:07:37;6.13;;;2.20;;
77214;SDS011;66210;53.282;9.864;2024-02-14T03:10:04;3.75;;;2.38;;
77214;SDS011;66210;53.282;9.864;2024-02-14T03:12:31;3.78;;;2.13;;
77214;SDS011;66210;53.282;9.864;2024-02-14T03:15:02;5.32;;;2.30;;
77214;SDS011;66210;53.282;9.864;2024-02-14T03:17:31;3.65;;;2.20;;
77214;SDS011;66210;53.282;9.864;2024-02-14T03:19:58;5.05;;;2.28;;
77214;SDS011;66210;53.282;9.864;2024-02-14T03:22:25;5.80;;;2.80;;
77214;SDS011;66210;53.282;9.864;2024-02-14T03:24:52;3.42;;;2.13;;
77214;SDS011;66210;53.282;9.864;2024-02-14T03:27:18;5.43;;;2.20;;
77214;SDS011;66210;53.282;9.864;2024-02-14T03:29:46;3.08;;;2.20;;
77214;SDS011;66210;53.282;9.864;2024-02-14T03:32:14;4.15;;;2.13;;
77214;SDS011;66210;53.282;9.864;2024-02-14T03:34:41;3.28;;;2.55;;
77214;SDS011;66210;53.282;9.864;2024-02-14T03:37:07;3.78;;;2.45;;
77214;SDS011;66210;53.282;9.864;2024-02-14T03:39:34;4.28;;;2.20;;
77214;SDS011;66210;53.282;9.864;2024-02-14T03:42:01;4.75;;;2.30;;
77214;SDS011;66210;53.282;9.864;2024-02-14T03:44:33;6.07;;;2.65;;
77214;SDS011;66210;53.282;9.864;2024-02-14T03:47:00;3.75;;;2.38;;
77214;SDS011;66210;53.282;9.864;2024-02-14T03:49:27;4.10;;;2.50;;
77214;SDS011;66210;53.282;9.864;2024-02-14T03:51:53;7.07;;;2.35;;
77214;SDS011;66210;53.282;9.864;2024-02-14T03:54:21;4.13;;;2.45;;
77214;SDS011;66210;53.282;9.864;2024-02-14T03:56:48;4.10;;;2.30;;
77214;SDS011;66210;53.282;9.864;2024-02-14T03:59:15;5.82;;;2.20;;
77214;SDS011;66210;53.282;9.864;2024-02-14T04:01:44;7.75;;;2.78;;
77214;SDS011;66210;53.282;9.864;2024-02-14T04:04:11;4.50;;;2.15;;
77214;SDS011;66210;53.282;9.864;2024-02-14T04:06:38;4.00;;;2.50;;
77214;SDS011;66210;53.282;9.864;2024-02-14T04:09:05;4.82;;;2.42;;
77214;SDS011;66210;53.282;9.864;2024-02-14T04:11:32;5.32;;;2.60;;
77214;SDS011;66210;53.282;9.864;2024-02-14T04:13:59;5.60;;;2.47;;
77214;SDS011;66210;53.282;9.864;2024-02-14T04:16:26;4.63;;;2.53;;
77214;SDS011;66210;53.282;9.864;2024-02-14T04:18:53;5.90;;;2.50;;
77214;SDS011;66210;53.282;9.864;2024-02-14T04:21:21;6.18;;;2.63;;
77214;SDS011;66210;53.282;9.864;2024-02-14T04:23:48;6.53;;;2.88;;
77214;SDS011;66210;53.282;9.864;2024-02-14T04:26:21;4.30;;;2.70;;
77214;SDS011;66210;53.282;9.864;2024-02-14T04:28:48;6.60;;;2.90;;
77214;SDS011;66210;53.282;9.864;2024-02-14T04:31:15;4.50;;;2.60;;
77214;SDS011;66210;53.282;9.864;2024-02-14T04:33:42;3.45;;;2.30;;
77214;SDS011;66210;53.282;9.864;2024-02-14T04:36:10;4.05;;;2.78;;
77214;SDS011;66210;53.282;9.864;2024-02-14T04:38:38;4.40;;;2.72;;
77214;SDS011;66210;53.282;9.864;2024-02-14T04:41:04;6.93;;;2.80;;
77214;SDS011;66210;53.282;9.864;2024-02-14T04:43:32;3.67;;;2.33;;
77214;SDS011;66210;53.282;9.864;2024-02-14T04:45:58;4.28;;;2.75;;
77214;SDS011;66210;53.282;9.864;2024-02-14T04:48:25;5.75;;;3.08;;
77214;SDS011;66210;53.282;9.864;2024-02-14T04:50:53;4.90;;;2.70;;
77214;SDS011;66210;53.282;9.864;2024-02-14T04:53:20;5.18;;;2.55;;
77214;SDS011;66210;53.282;9.864;2024-02-14T04:55:47;4.80;;;2.80;;
77214;SDS011;66210;53.282;9.864;2024-02-14T04:58:14;3.38;;;2.50;;
77214;SDS011;66210;53.282;9.864;2024-02-14T05:00:41;6.60;;;2.90;;
77214;SDS011;66210;53.282;9.864;2024-02-14T05:03:08;3.92;;;2.63;;
77214;SDS011;66210;53.282;9.864;2024-02-14T05:05:36;6.25;;;2.65;;
77214;SDS011;66210;53.282;9.864;2024-02-14T05:08:04;3.42;;;2.40;;
77214;SDS011;66210;53.282;9.864;2024-02-14T05:10:31;4.63;;;2.63;;
77214;SDS011;66210;53.282;9.864;2024-02-14T05:12:58;5.10;;;2.75;;
77214;SDS011;66210;53.282;9.864;2024-02-14T05:15:25;6.05;;;2.60;;
77214;SDS011;66210;53.282;9.864;2024-02-14T05:17:52;8.00;;;2.78;;
77214;SDS011;66210;53.282;9.864;2024-02-14T05:20:19;4.95;;;2.78;;
77214;SDS011;66210;53.282;9.864;2024-02-14T05:22:46;3.30;;;2.55;;
77214;SDS011;66210;53.282;9.864;2024-02-14T05:25:12;5.07;;;2.67;;
77214;SDS011;66210;53.282;9.864;2024-02-14T05:27:40;6.65;;;2.83;;
77214;SDS011;66210;53.282;9.864;2024-02-14T05:30:07;4.20;;;2.53;;
77214;SDS011;66210;53.282;9.864;2024-02-14T05:32:36;3.15;;;2.38;;
77214;SDS011;66210;53.282;9.864;2024-02-14T05:35:03;5.03;;;2.53;;
77214;SDS011;66210;53.282;9.864;2024-02-14T05:40:03;3.30;;;2.58;;
77214;SDS011;66210;53.282;9.864;2024-02-14T05:42:33;4.45;;;2.63;;
77214;SDS011;66210;53.282;9.864;2024-02-14T05:45:01;4.50;;;3.00;;
77214;SDS011;66210;53.282;9.864;2024-02-14T05:47:30;6.55;;;2.85;;
77214;SDS011;66210;53.282;9.864;2024-02-14T05:49:57;3.88;;;2.53;;
77214;SDS011;66210;53.282;9.864;2024-02-14T05:52:24;5.25;;;2.28;;
77214;SDS011;66210;53.282;9.864;2024-02-14T05:54:51;2.97;;;2.30;;
77214;SDS011;66210;53.282;9.864;2024-02-14T05:57:18;4.85;;;3.25;;
77214;SDS011;66210;53.282;9.864;2024-02-14T05:59:44;4.05;;;2.72;;
77214;SDS011;66210;53.282;9.864;2024-02-14T06:02:11;3.00;;;2.45;;
77214;SDS011;66210;53.282;9.864;2024-02-14T06:04:38;5.68;;;2.60;;
77214;SDS011;66210;53.282;9.864;2024-02-14T06:07:05;5.43;;;2.47;;
77214;SDS011;66210;53.282;9.864;2024-02-14T06:09:33;4.25;;;2.70;;
77214;SDS011;66210;53.282;9.864;2024-02-14T06:12:00;6.30;;;2.92;;
77214;SDS011;66210;53.282;9.864;2024-02-14T06:14:27;5.25;;;2.72;;
77214;SDS011;66210;53.282;9.864;2024-02-14T06:16:55;5.32;;;2.72;;
77214;SDS011;66210;53.282;9.864;2024-02-14T06:19:22;5.95;;;2.92;;
77214;SDS011;66210;53.282;9.864;2024-02-14T06:21:49;4.47;;;2.70;;
77214;SDS011;66210;53.282;9.864;2024-02-14T06:24:16;3.40;;;2.58;;
77214;SDS011;66210;53.282;9.864;2024-02-14T06:26:45;4.50;;;3.00;;
77214;SDS011;66210;53.282;9.864;2024-02-14T06:29:12;5.38;;;3.00;;
77214;SDS011;66210;53.282;9.864;2024-02-14T06:31:39;6.05;;;3.13;;
77214;SDS011;66210;53.282;9.864;2024-02-14T06:34:06;7.25;;;3.08;;
77214;SDS011;66210;53.282;9.864;2024-02-14T06:36:34;5.93;;;3.28;;
77214;SDS011;66210;53.282;9.864;2024-02-14T06:39:02;5.43;;;3.08;;
77214;SDS011;66210;53.282;9.864;2024-02-14T06:41:29;4.60;;;3.10;;
77214;SDS011;66210;53.282;9.864;2024-02-14T06:43:56;5.03;;;3.25;;
77214;SDS011;66210;53.282;9.864;2024-02-14T06:46:23;4.32;;;2.88;;
77214;SDS011;66210;53.282;9.864;2024-02-14T06:48:50;4.63;;;2.90;;
77214;SDS011;66210;53.282;9.864;2024-02-14T06:51:17;4.00;;;2.90;;
77214;SDS011;66210;53.282;9.864;2024-02-14T06:53:44;4.60;;;2.80;;
77214;SDS011;66210;53.282;9.864;2024-02-14T06:56:11;6.53;;;3.30;;
77214;SDS011;66210;53.282;9.864;2024-02-14T06:58:38;4.05;;;2.70;;
77214;SDS011;66210;53.282;9.864;2024-02-14T07:01:05;4.72;;;2.92;;
77214;SDS011;66210;53.282;9.864;2024-02-14T07:03:32;3.75;;;2.70;;
77214;SDS011;66210;53.282;9.864;2024-02-14T07:05:59;5.25;;;3.00;;
77214;SDS011;66210;53.282;9.864;2024-02-14T07:08:26;5.97;;;3.40;;
77214;SDS011;66210;53.282;9.864;2024-02-14T07:10:55;4.43;;;3.10;;
77214;SDS011;66210;53.282;9.864;2024-02-14T07:13:23;4.65;;;3.22;;
77214;SDS011;66210;53.282;9.864;2024-02-14T07:15:49;4.70;;;2.53;;
77214;SDS011;66210;53.282;9.864;2024-02-14T07:18:16;4.00;;;3.08;;
77214;SDS011;66210;53.282;9.864;2024-02-14T07:20:43;5.68;;;2.92;;
77214;SDS011;66210;53.282;9.864;2024-02-14T07:23:10;3.50;;;2.90;;
77214;SDS011;66210;53.282;9.864;2024-02-14T07:25:37;5.15;;;3.03;;
77214;SDS011;66210;53.282;9.864;2024-02-14T07:28:04;4.03;;;2.80;;
77214;SDS011;66210;53.282;9.864;2024-02-14T07:30:31;4.30;;;2.80;;
77214;SDS011;66210;53.282;9.864;2024-02-14T07:32:58;5.68;;;2.95;;
77214;SDS011;66210;53.282;9.864;2024-02-14T07:35:24;5.38;;;2.80;;
77214;SDS011;66210;53.282;9.864;2024-02-14T07:37:52;3.78;;;2.75;;
77214;SDS011;66210;53.282;9.864;2024-02-14T07:40:19;5.43;;;2.67;;
77214;SDS011;66210;53.282;9.864;2024-02-14T07:42:47;3.25;;;2.47;;
77214;SDS011;66210;53.282;9.864;2024-02-14T07:45:14;4.05;;;2.80;;
77214;SDS011;66210;53.282;9.864;2024-02-14T07:47:41;4.50;;;2.92;;
77214;SDS011;66210;53.282;9.864;2024-02-14T07:50:08;3.40;;;2.50;;
77214;SDS011;66210;53.282;9.864;2024-02-14T07:52:35;3.90;;;2.85;;
77214;SDS011;66210;53.282;9.864;2024-02-14T07:55:03;4.78;;;2.75;;
77214;SDS011;66210;53.282;9.864;2024-02-14T07:57:30;3.80;;;2.83;;
77214;SDS011;66210;53.282;9.864;2024-02-14T07:59:57;4.28;;;3.05;;
77214;SDS011;66210;53.282;9.864;2024-02-14T08:02:23;4.15;;;2.83;;
77214;SDS011;66210;53.282;9.864;2024-02-14T08:04:50;4.35;;;3.08;;
77214;SDS011;66210;53.282;9.864;2024-02-14T08:07:18;7.47;;;3.65;;
77214;SDS011;66210;53.282;9.864;2024-02-14T08:09:46;4.53;;;3.00;;
77214;SDS011;66210;53.282;9.864;2024-02-14T08:12:12;4.57;;;2.83;;
77214;SDS011;66210;53.282;9.864;2024-02-14T08:14:39;4.07;;;2.75;;
77214;SDS011;66210;53.282;9.864;2024-02-14T08:17:06;3.40;;;2.47;;
77214;SDS011;66210;53.282;9.864;2024-02-14T08:19:33;4.25;;;2.70;;
77214;SDS011;66210;53.282;9.864;2024-02-14T08:22:00;3.58;;;2.60;;
77214;SDS011;66210;53.282;9.864;2024-02-14T08:24:27;4.85;;;2.67;;
77214;SDS011;66210;53.282;9.864;2024-02-14T08:26:54;3.20;;;2.30;;
77214;SDS011;66210;53.282;9.864;2024-02-14T08:29:21;3.50;;;2.67;;
77214;SDS011;66210;53.282;9.864;2024-02-14T08:31:48;3.67;;;2.70;;
77214;SDS011;66210;53.282;9.864;2024-02-14T08:34:15;4.47;;;2.90;;
77214;SDS011;66210;53.282;9.864;2024-02-14T08:36:43;3.65;;;2.58;;
77214;SDS011;66210;53.282;9.864;2024-02-14T08:39:10;4.43;;;2.65;;
77214;SDS011;66210;53.282;9.864;2024-02-14T08:41:37;3.55;;;2.63;;
77214;SDS011;66210;53.282;9.864;2024-02-14T08:44:05;4.95;;;2.60;;
77214;SDS011;66210;53.282;9.864;2024-02-14T08:46:31;4.47;;;2.47;;
77214;SDS011;66210;53.282;9.864;2024-02-14T08:49:02;3.30;;;2.60;;
77214;SDS011;66210;53.282;9.864;2024-02-14T08:51:35;3.75;;;2.50;;
77214;SDS011;66210;53.282;9.864;2024-02-14T08:54:02;3.42;;;2.60;;
77214;SDS011;66210;53.282;9.864;2024-02-14T08:56:31;4.82;;;2.03;;
77214;SDS011;66210;53.282;9.864;2024-02-14T08:59:00;2.70;;;2.20;;
77214;SDS011;66210;53.282;9.864;2024-02-14T09:01:29;3.35;;;2.50;;
77214;SDS011;66210;53.282;9.864;2024-02-14T09:03:59;3.55;;;2.50;;
77214;SDS011;66210;53.282;9.864;2024-02-14T09:06:25;2.97;;;2.25;;
77214;SDS011;66210;53.282;9.864;2024-02-14T09:08:53;4.25;;;2.47;;
77214;SDS011;66210;53.282;9.864;2024-02-14T09:11:20;4.90;;;2.42;;
77214;SDS011;66210;53.282;9.864;2024-02-14T09:13:48;3.38;;;2.50;;
77214;SDS011;66210;53.282;9.864;2024-02-14T09:16:17;2.95;;;2.50;;
77214;SDS011;66210;53.282;9.864;2024-02-14T09:18:47;3.10;;;2.63;;
77214;SDS011;66210;53.282;9.864;2024-02-14T09:21:14;4.57;;;2.65;;
77214;SDS011;66210;53.282;9.864;2024-02-14T09:23:46;3.33;;;2.72;;
77214;SDS011;66210;53.282;9.864;2024-02-14T09:26:13;3.78;;;2.88;;
77214;SDS011;66210;53.282;9.864;2024-02-14T09:28:40;2.88;;;2.55;;
77214;SDS011;66210;53.282;9.864;2024-02-14T09:31:07;3.33;;;2.47;;
77214;SDS011;66210;53.282;9.864;2024-02-14T09:33:36;3.58;;;2.38;;
77214;SDS011;66210;53.282;9.864;2024-02-14T09:36:04;2.92;;;2.20;;
77214;SDS011;66210;53.282;9.864;2024-02-14T09:38:31;2.97;;;2.33;;
77214;SDS011;66210;53.282;9.864;2024-02-14T09:41:03;2.85;;;2.22;;
77214;SDS011;66210;53.282;9.864;2024-02-14T09:43:43;2.65;;;2.17;;
77214;SDS011;66210;53.282;9.864;2024-02-14T09:46:12;2.30;;;2.00;;
77214;SDS011;66210;53.282;9.864;2024-02-14T09:51:14;2.65;;;2.22;;
77214;SDS011;66210;53.282;9.864;2024-02-14T09:53:41;2.38;;;2.17;;
77214;SDS011;66210;53.282;9.864;2024-02-14T09:56:10;2.58;;;2.10;;
77214;SDS011;66210;53.282;9.864;2024-02-14T09:58:38;2.53;;;2.28;;
77214;SDS011;66210;53.282;9.864;2024-02-14T10:01:06;3.42;;;2.50;;
77214;SDS011;66210;53.282;9.864;2024-02-14T10:03:33;2.60;;;2.40;;
77214;SDS011;66210;53.282;9.864;2024-02-14T10:06:02;3.00;;;2.47;;
77214;SDS011;66210;53.282;9.864;2024-02-14T10:08:31;3.17;;;2.40;;
77214;SDS011;66210;53.282;9.864;2024-02-14T10:10:58;3.47;;;2.20;;
77214;SDS011;66210;53.282;9.864;2024-02-14T10:13:30;4.30;;;2.40;;
77214;SDS011;66210;53.282;9.864;2024-02-14T10:15:58;3.20;;;2.60;;
77214;SDS011;66210;53.282;9.864;2024-02-14T10:18:24;5.65;;;2.60;;
77214;SDS011;66210;53.282;9.864;2024-02-14T10:20:54;3.00;;;2.50;;
77214;SDS011;66210;53.282;9.864;2024-02-14T10:23:22;2.50;;;2.28;;
77214;SDS011;66210;53.282;9.864;2024-02-14T10:25:50;3.70;;;2.72;;
77214;SDS011;66210;53.282;9.864;2024-02-14T10:28:20;3.38;;;2.50;;
77214;SDS011;66210;53.282;9.864;2024-02-14T10:30:58;3.08;;;2.67;;
77214;SDS011;66210;53.282;9.864;2024-02-14T10:33:27;4.15;;;3.10;;
77214;SDS011;66210;53.282;9.864;2024-02-14T10:35:56;3.17;;;2.45;;
77214;SDS011;66210;53.282;9.864;2024-02-14T10:38:31;5.03;;;3.30;;
77214;SDS011;66210;53.282;9.864;2024-02-14T10:41:02;3.95;;;3.35;;
77214;SDS011;66210;53.282;9.864;2024-02-14T10:43:30;3.45;;;2.88;;
77214;SDS011;66210;53.282;9.864;2024-02-14T10:46:00;2.58;;;2.28;;
77214;SDS011;66210;53.282;9.864;2024-02-14T10:48:34;2.97;;;2.63;;
77214;SDS011;66210;53.282;9.864;2024-02-14T10:51:05;3.80;;;2.67;;
77214;SDS011;66210;53.282;9.864;2024-02-14T10:53:34;3.30;;;2.83;;
77214;SDS011;66210;53.282;9.864;2024-02-14T10:56:07;4.78;;;3.10;;
77214;SDS011;66210;53.282;9.864;2024-02-14T10:58:34;3.30;;;2.70;;
77214;SDS011;66210;53.282;9.864;2024-02-14T11:01:01;3.00;;;2.63;;
77214;SDS011;66210;53.282;9.864;2024-02-14T11:03:29;4.13;;;2.75;;
77214;SDS011;66210;53.282;9.864;2024-02-14T11:06:00;2.92;;;2.63;;
77214;SDS011;66210;53.282;9.864;2024-02-14T11:08:30;4.68;;;2.83;;
77214;SDS011;66210;53.282;9.864;2024-02-14T11:11:01;5.25;;;2.83;;
77214;SDS011;66210;53.282;9.864;2024-02-14T11:13:28;3.25;;;2.65;;
77214;SDS011;66210;53.282;9.864;2024-02-14T11:16:01;4.95;;;2.90;;
77214;SDS011;66210;53.282;9.864;2024-02-14T11:18:30;3.58;;;2.80;;
77214;SDS011;66210;53.282;9.864;2024-02-14T11:20:57;3.75;;;3.22;;
77214;SDS011;66210;53.282;9.864;2024-02-14T11:23:24;3.90;;;2.78;;
77214;SDS011;66210;53.282;9.864;2024-02-14T11:25:59;4.18;;;3.00;;
77214;SDS011;66210;53.282;9.864;2024-02-14T11:28:28;4.78;;;3.22;;
77214;SDS011;66210;53.282;9.864;2024-02-14T11:31:00;3.55;;;3.17;;
77214;SDS011;66210;53.282;9.864;2024-02-14T11:33:27;4.28;;;3.47;;
77214;SDS011;66210;53.282;9.864;2024-02-14T11:35:54;4.18;;;3.58;;
77214;SDS011;66210;53.282;9.864;2024-02-14T11:38:22;5.88;;;3.75;;
77214;SDS011;66210;53.282;9.864;2024-02-14T11:40:56;5.63;;;3.80;;
77214;SDS011;66210;53.282;9.864;2024-02-14T11:43:25;6.78;;;4.10;;
77214;SDS011;66210;53.282;9.864;2024-02-14T11:45:52;5.68;;;4.63;;
77214;SDS011;66210;53.282;9.864;2024-02-14T11:48:19;6.32;;;4.13;;
77214;SDS011;66210;53.282;9.864;2024-02-14T11:50:47;5.75;;;4.70;;
77214;SDS011;66210;53.282;9.864;2024-02-14T11:53:14;7.40;;;4.80;;
77214;SDS011;66210;53.282;9.864;2024-02-14T11:55:45;7.18;;;5.25;;
77214;SDS011;66210;53.282;9.864;2024-02-14T11:58:16;7.88;;;5.20;;
77214;SDS011;66210;53.282;9.864;2024-02-14T12:00:44;6.20;;;4.72;;
77214;SDS011;66210;53.282;9.864;2024-02-14T12:03:12;9.40;;;6.00;;
77214;SDS011;66210;53.282;9.864;2024-02-14T12:05:41;6.55;;;5.00;;
77214;SDS011;66210;53.282;9.864;2024-02-14T12:08:11;8.38;;;4.93;;
77214;SDS011;66210;53.282;9.864;2024-02-14T12:10:38;7.80;;;5.00;;
77214;SDS011;66210;53.282;9.864;2024-02-14T12:13:08;7.45;;;4.75;;
77214;SDS011;66210;53.282;9.864;2024-02-14T12:15:44;10.23;;;5.90;;
77214;SDS011;66210;53.282;9.864;2024-02-14T12:18:11;6.72;;;5.28;;
77214;SDS011;66210;53.282;9.864;2024-02-14T12:20:43;6.72;;;4.70;;
77214;SDS011;66210;53.282;9.864;2024-02-14T12:23:14;7.78;;;5.10;;
77214;SDS011;66210;53.282;9.864;2024-02-14T12:25:43;6.43;;;4.28;;
77214;SDS011;66210;53.282;9.864;2024-02-14T12:28:16;9.27;;;5.05;;
77214;SDS011;66210;53.282;9.864;2024-02-14T12:30:45;6.25;;;4.85;;
77214;SDS011;66210;53.282;9.864;2024-02-14T12:33:13;6.90;;;4.53;;
77214;SDS011;66210;53.282;9.864;2024-02-14T12:35:47;7.53;;;5.00;;
77214;SDS011;66210;53.282;9.864;2024-02-14T12:38:15;6.03;;;4.75;;
77214;SDS011;66210;53.282;9.864;2024-02-14T12:40:42;4.90;;;3.95;;
77214;SDS011;66210;53.282;9.864;2024-02-14T12:43:11;5.72;;;4.22;;
77214;SDS011;66210;53.282;9.864;2024-02-14T12:45:39;7.82;;;4.60;;
77214;SDS011;66210;53.282;9.864;2024-02-14T12:48:06;8.68;;;4.60;;
77214;SDS011;66210;53.282;9.864;2024-02-14T12:50:37;6.30;;;4.32;;
77214;SDS011;66210;53.282;9.864;2024-02-14T12:53:04;5.85;;;4.15;;
77214;SDS011;66210;53.282;9.864;2024-02-14T12:55:32;10.73;;;4.60;;
77214;SDS011;66210;53.282;9.864;2024-02-14T12:57:58;5.43;;;4.00;;
77214;SDS011;66210;53.282;9.864;2024-02-14T13:00:25;5.28;;;4.05;;
77214;SDS011;66210;53.282;9.864;2024-02-14T13:02:53;5.45;;;3.85;;
77214;SDS011;66210;53.282;9.864;2024-02-14T13:05:20;5.70;;;4.00;;
77214;SDS011;66210;53.282;9.864;2024-02-14T13:07:47;7.93;;;4.32;;
77214;SDS011;66210;53.282;9.864;2024-02-14T13:10:14;6.05;;;4.05;;
77214;SDS011;66210;53.282;9.864;2024-02-14T13:12:41;7.82;;;3.88;;
77214;SDS011;66210;53.282;9.864;2024-02-14T13:15:10;5.80;;;4.03;;
77214;SDS011;66210;53.282;9.864;2024-02-14T13:17:37;4.90;;;3.72;;
77214;SDS011;66210;53.282;9.864;2024-02-14T13:20:04;4.57;;;3.25;;
77214;SDS011;66210;53.282;9.864;2024-02-14T13:22:32;4.63;;;3.80;;
77214;SDS011;66210;53.282;9.864;2024-02-14T13:24:59;4.75;;;3.90;;
77214;SDS011;66210;53.282;9.864;2024-02-14T13:27:31;7.30;;;3.95;;
77214;SDS011;66210;53.282;9.864;2024-02-14T13:29:58;4.43;;;3.22;;
77214;SDS011;66210;53.282;9.864;2024-02-14T13:32:25;4.93;;;3.75;;
77214;SDS011;66210;53.282;9.864;2024-02-14T13:34:52;8.35;;;3.47;;
77214;SDS011;66210;53.282;9.864;2024-02-14T13:37:19;8.23;;;4.18;;
77214;SDS011;66210;53.282;9.864;2024-02-14T13:39:47;5.57;;;3.95;;
77214;SDS011;66210;53.282;9.864;2024-02-14T13:42:14;7.55;;;3.80;;
77214;SDS011;66210;53.282;9.864;2024-02-14T13:44:41;6.57;;;3.75;;
77214;SDS011;66210;53.282;9.864;2024-02-14T13:47:08;5.60;;;4.00;;
77214;SDS011;66210;53.282;9.864;2024-02-14T13:49:35;5.97;;;3.75;;
77214;SDS011;66210;53.282;9.864;2024-02-14T13:52:02;5.32;;;3.65;;
77214;SDS011;66210;53.282;9.864;2024-02-14T13:54:28;5.18;;;3.95;;
77214;SDS011;66210;53.282;9.864;2024-02-14T13:56:55;6.85;;;3.63;;
77214;SDS011;66210;53.282;9.864;2024-02-14T13:59:23;5.43;;;3.80;;
77214;SDS011;66210;53.282;9.864;2024-02-14T14:01:49;5.28;;;3.88;;
77214;SDS011;66210;53.282;9.864;2024-02-14T14:04:16;5.57;;;3.95;;
77214;SDS011;66210;53.282;9.864;2024-02-14T14:06:43;8.05;;;3.78;;
77214;SDS011;66210;53.282;9.864;2024-02-14T14:09:10;6.82;;;4.07;;
77214;SDS011;66210;53.282;9.864;2024-02-14T14:11:37;5.43;;;3.70;;
77214;SDS011;66210;53.282;9.864;2024-02-14T14:14:06;5.10;;;4.13;;
77214;SDS011;66210;53.282;9.864;2024-02-14T14:16:34;6.40;;;3.95;;
77214;SDS011;66210;53.282;9.864;2024-02-14T14:19:01;4.43;;;3.72;;
77214;SDS011;66210;53.282;9.864;2024-02-14T14:21:29;5.70;;;4.00;;
77214;SDS011;66210;53.282;9.864;2024-02-14T14:23:56;7.97;;;3.80;;
77214;SDS011;66210;53.282;9.864;2024-02-14T14:26:23;6.53;;;4.13;;
77214;SDS011;66210;53.282;9.864;2024-02-14T14:28:51;8.30;;;3.90;;
77214;SDS011;66210;53.282;9.864;2024-02-14T14:31:20;5.38;;;3.83;;
77214;SDS011;66210;53.282;9.864;2024-02-14T14:33:47;4.35;;;3.28;;
77214;SDS011;66210;53.282;9.864;2024-02-14T14:36:15;4.82;;;3.70;;
77214;SDS011;66210;53.282;9.864;2024-02-14T14:38:42;5.50;;;3.78;;
77214;SDS011;66210;53.282;9.864;2024-02-14T14:41:09;5.47;;;3.50;;
77214;SDS011;66210;53.282;9.864;2024-02-14T14:43:37;4.72;;;3.70;;
77214;SDS011;66210;53.282;9.864;2024-02-14T14:46:04;4.60;;;3.65;;
77214;SDS011;66210;53.282;9.864;2024-02-14T14:48:30;4.10;;;3.55;;
77214;SDS011;66210;53.282;9.864;2024-02-14T14:50:58;4.47;;;3.60;;
77214;SDS011;66210;53.282;9.864;2024-02-14T14:53:25;6.82;;;3.95;;
77214;SDS011;66210;53.282;9.864;2024-02-14T14:55:56;5.53;;;3.65;;
77214;SDS011;66210;53.282;9.864;2024-02-14T14:58:24;5.43;;;3.72;;
77214;SDS011;66210;53.282;9.864;2024-02-14T15:00:55;5.15;;;3.80;;